sensor_id;sensor_type;location;lat;lon;timestamp;P1;durP1;ratioP1;P2;durP2;ratioP2
9306;SDS011;4691;47.612;7.610;2023-09-18T00:00:23;10.05;;;4.82;;
9306;SDS011;4691;47.612;7.610;2023-09-18T00:02:48;13.07;;;5.38;;
9306;SDS011;4691;47.612;7.610;2023-09-18T00:05:14;10.32;;;4.68;;
9306;SDS011;4691;47.612;7.610;2023-09-18T00:07:41;9.60;;;4.28;;
9306;SDS011;4691;47.612;7.610;2023-09-18T00:10:08;10.93;;;4.20;;
9306;SDS011;4691;47.612;7.610;2023-09-18T00:12:34;12.65;;;4.38;;
9306;SDS011;4691;47.612;7.610;2023-09-18T00:15:00;6.95;;;3.97;;
9306;SDS011;4691;47.612;7.610;2023-09-18T00:17:25;7.90;;;4.25;;
9306;SDS011;4691;47.612;7.610;2023-09-18T00:19:51;8.48;;;4.13;;
9306;SDS011;4691;47.612;7.610;2023-09-18T00:22:16;8.90;;;4.82;;
9306;SDS011;4691;47.612;7.610;2023-09-18T00:24:42;8.93;;;4.38;;
9306;SDS011;4691;47.612;7.610;2023-09-18T00:27:07;8.65;;;4.68;;
9306;SDS011;4691;47.612;7.610;2023-09-18T00:29:32;8.88;;;4.57;;
9306;SDS011;4691;47.612;7.610;2023-09-18T00:31:58;7.38;;;4.30;;
9306;SDS011;4691;47.612;7.610;2023-09-18T00:34:23;12.25;;;4.15;;
9306;SDS011;4691;47.612;7.610;2023-09-18T00:36:48;12.82;;;4.97;;
9306;SDS011;4691;47.612;7.610;2023-09-18T00:39:14;14.50;;;5.28;;
9306;SDS011;4691;47.612;7.610;2023-09-18T00:41:40;10.70;;;5.40;;
9306;SDS011;4691;47.612;7.610;2023-09-18T00:44:06;10.35;;;4.90;;
9306;SDS011;4691;47.612;7.610;2023-09-18T00:46:31;8.05;;;4.78;;
9306;SDS011;4691;47.612;7.610;2023-09-18T00:48:58;13.10;;;4.53;;
9306;SDS011;4691;47.612;7.610;2023-09-18T00:51:23;9.02;;;5.05;;
9306;SDS011;4691;47.612;7.610;2023-09-18T00:53:49;10.48;;;4.75;;
9306;SDS011;4691;47.612;7.610;2023-09-18T00:56:14;13.60;;;4.75;;
9306;SDS011;4691;47.612;7.610;2023-09-18T00:58:41;8.98;;;5.30;;
9306;SDS011;4691;47.612;7.610;2023-09-18T01:01:06;10.05;;;4.72;;
9306;SDS011;4691;47.612;7.610;2023-09-18T01:03:33;12.95;;;5.07;;
9306;SDS011;4691;47.612;7.610;2023-09-18T01:05:59;13.18;;;5.70;;
9306;SDS011;4691;47.612;7.610;2023-09-18T01:08:24;9.82;;;5.07;;
9306;SDS011;4691;47.612;7.610;2023-09-18T01:10:56;11.10;;;5.53;;
9306;SDS011;4691;47.612;7.610;2023-09-18T01:13:34;11.52;;;5.47;;
9306;SDS011;4691;47.612;7.610;2023-09-18T01:16:04;9.88;;;5.63;;
9306;SDS011;4691;47.612;7.610;2023-09-18T01:18:48;12.77;;;5.38;;
9306;SDS011;4691;47.612;7.610;2023-09-18T01:21:18;13.00;;;5.35;;
9306;SDS011;4691;47.612;7.610;2023-09-18T01:23:44;10.30;;;5.50;;
9306;SDS011;4691;47.612;7.610;2023-09-18T01:26:09;9.27;;;5.25;;
9306;SDS011;4691;47.612;7.610;2023-09-18T01:28:34;14.70;;;5.70;;
9306;SDS011;4691;47.612;7.610;2023-09-18T01:30:59;11.77;;;5.55;;
9306;SDS011;4691;47.612;7.610;2023-09-18T01:33:25;14.70;;;6.03;;
9306;SDS011;4691;47.612;7.610;2023-09-18T01:35:52;11.70;;;6.07;;
9306;SDS011;4691;47.612;7.610;2023-09-18T01:38:20;10.13;;;6.07;;
9306;SDS011;4691;47.612;7.610;2023-09-18T01:40:47;13.52;;;6.00;;
9306;SDS011;4691;47.612;7.610;2023-09-18T01:43:12;10.93;;;5.75;;
9306;SDS011;4691;47.612;7.610;2023-09-18T01:45:38;12.38;;;5.38;;
9306;SDS011;4691;47.612;7.610;2023-09-18T01:48:05;10.13;;;5.55;;
9306;SDS011;4691;47.612;7.610;2023-09-18T01:50:31;15.85;;;6.28;;
9306;SDS011;4691;47.612;7.610;2023-09-18T01:52:58;16.17;;;6.07;;
9306;SDS011;4691;47.612;7.610;2023-09-18T01:55:23;16.42;;;6.15;;
9306;SDS011;4691;47.612;7.610;2023-09-18T01:57:49;19.77;;;6.95;;
9306;SDS011;4691;47.612;7.610;2023-09-18T02:00:14;13.02;;;6.15;;
9306;SDS011;4691;47.612;7.610;2023-09-18T02:02:40;20.58;;;6.18;;
9306;SDS011;4691;47.612;7.610;2023-09-18T02:05:05;21.67;;;6.78;;
9306;SDS011;4691;47.612;7.610;2023-09-18T02:07:31;17.50;;;6.25;;
9306;SDS011;4691;47.612;7.610;2023-09-18T02:09:56;17.02;;;6.20;;
9306;SDS011;4691;47.612;7.610;2023-09-18T02:12:22;18.90;;;6.28;;
9306;SDS011;4691;47.612;7.610;2023-09-18T02:14:47;17.67;;;6.18;;
9306;SDS011;4691;47.612;7.610;2023-09-18T02:19:32;18.05;;;6.45;;
9306;SDS011;4691;47.612;7.610;2023-09-18T02:21:57;20.40;;;5.55;;
9306;SDS011;4691;47.612;7.610;2023-09-18T02:24:22;18.08;;;6.03;;
9306;SDS011;4691;47.612;7.610;2023-09-18T02:26:48;11.05;;;4.63;;
9306;SDS011;4691;47.612;7.610;2023-09-18T02:29:14;23.05;;;6.03;;
9306;SDS011;4691;47.612;7.610;2023-09-18T02:31:39;19.13;;;5.90;;
9306;SDS011;4691;47.612;7.610;2023-09-18T02:34:05;20.00;;;5.13;;
9306;SDS011;4691;47.612;7.610;2023-09-18T02:36:32;13.40;;;4.90;;
9306;SDS011;4691;47.612;7.610;2023-09-18T02:38:57;16.08;;;4.80;;
9306;SDS011;4691;47.612;7.610;2023-09-18T02:41:23;16.10;;;4.70;;
9306;SDS011;4691;47.612;7.610;2023-09-18T02:43:48;13.65;;;6.43;;
9306;SDS011;4691;47.612;7.610;2023-09-18T02:46:13;14.43;;;5.93;;
9306;SDS011;4691;47.612;7.610;2023-09-18T02:48:39;12.20;;;4.72;;
9306;SDS011;4691;47.612;7.610;2023-09-18T02:51:05;13.13;;;4.60;;
9306;SDS011;4691;47.612;7.610;2023-09-18T02:53:30;12.52;;;4.38;;
9306;SDS011;4691;47.612;7.610;2023-09-18T02:55:56;15.45;;;4.57;;
9306;SDS011;4691;47.612;7.610;2023-09-18T02:58:23;14.45;;;4.50;;
9306;SDS011;4691;47.612;7.610;2023-09-18T03:00:51;15.10;;;4.47;;
9306;SDS011;4691;47.612;7.610;2023-09-18T03:03:18;14.93;;;4.70;;
9306;SDS011;4691;47.612;7.610;2023-09-18T03:05:44;18.08;;;6.10;;
9306;SDS011;4691;47.612;7.610;2023-09-18T03:08:10;10.90;;;4.05;;
9306;SDS011;4691;47.612;7.610;2023-09-18T03:10:36;13.75;;;4.72;;
9306;SDS011;4691;47.612;7.610;2023-09-18T03:13:04;14.90;;;4.45;;
9306;SDS011;4691;47.612;7.610;2023-09-18T03:15:30;16.92;;;4.25;;
9306;SDS011;4691;47.612;7.610;2023-09-18T03:17:59;11.68;;;4.28;;
9306;SDS011;4691;47.612;7.610;2023-09-18T03:22:53;11.30;;;4.07;;
9306;SDS011;4691;47.612;7.610;2023-09-18T03:25:19;13.05;;;3.85;;
9306;SDS011;4691;47.612;7.610;2023-09-18T03:27:45;14.88;;;4.43;;
9306;SDS011;4691;47.612;7.610;2023-09-18T03:30:10;15.80;;;4.53;;
9306;SDS011;4691;47.612;7.610;2023-09-18T03:32:41;12.57;;;4.03;;
9306;SDS011;4691;47.612;7.610;2023-09-18T03:35:07;17.95;;;5.65;;
9306;SDS011;4691;47.612;7.610;2023-09-18T03:37:34;17.38;;;4.47;;
9306;SDS011;4691;47.612;7.610;2023-09-18T03:40:00;12.15;;;3.78;;
9306;SDS011;4691;47.612;7.610;2023-09-18T03:42:26;12.20;;;4.10;;
9306;SDS011;4691;47.612;7.610;2023-09-18T03:44:52;8.98;;;3.42;;
9306;SDS011;4691;47.612;7.610;2023-09-18T03:47:17;16.58;;;4.32;;
9306;SDS011;4691;47.612;7.610;2023-09-18T03:49:42;15.43;;;4.78;;
9306;SDS011;4691;47.612;7.610;2023-09-18T03:52:08;14.00;;;4.38;;
9306;SDS011;4691;47.612;7.610;2023-09-18T03:54:33;12.55;;;3.67;;
9306;SDS011;4691;47.612;7.610;2023-09-18T03:56:59;12.02;;;4.35;;
9306;SDS011;4691;47.612;7.610;2023-09-18T03:59:24;14.98;;;3.85;;
9306;SDS011;4691;47.612;7.610;2023-09-18T04:01:49;9.93;;;4.30;;
9306;SDS011;4691;47.612;7.610;2023-09-18T04:04:15;12.95;;;4.05;;
9306;SDS011;4691;47.612;7.610;2023-09-18T04:06:40;15.80;;;4.00;;
9306;SDS011;4691;47.612;7.610;2023-09-18T04:09:08;13.45;;;3.90;;
9306;SDS011;4691;47.612;7.610;2023-09-18T04:11:33;12.73;;;4.25;;
9306;SDS011;4691;47.612;7.610;2023-09-18T04:13:59;11.20;;;3.72;;
9306;SDS011;4691;47.612;7.610;2023-09-18T04:16:30;12.00;;;3.58;;
9306;SDS011;4691;47.612;7.610;2023-09-18T04:18:56;12.45;;;3.83;;
9306;SDS011;4691;47.612;7.610;2023-09-18T04:21:24;9.55;;;2.95;;
9306;SDS011;4691;47.612;7.610;2023-09-18T04:23:50;10.10;;;3.60;;
9306;SDS011;4691;47.612;7.610;2023-09-18T04:26:20;10.82;;;3.10;;
9306;SDS011;4691;47.612;7.610;2023-09-18T04:28:46;9.73;;;3.00;;
9306;SDS011;4691;47.612;7.610;2023-09-18T04:31:12;10.73;;;3.60;;
9306;SDS011;4691;47.612;7.610;2023-09-18T04:33:38;11.02;;;3.85;;
9306;SDS011;4691;47.612;7.610;2023-09-18T04:36:03;10.02;;;3.75;;
9306;SDS011;4691;47.612;7.610;2023-09-18T04:38:31;10.50;;;3.70;;
9306;SDS011;4691;47.612;7.610;2023-09-18T04:41:01;10.95;;;3.70;;
9306;SDS011;4691;47.612;7.610;2023-09-18T04:43:26;15.27;;;4.47;;
9306;SDS011;4691;47.612;7.610;2023-09-18T04:45:54;12.63;;;4.10;;
9306;SDS011;4691;47.612;7.610;2023-09-18T04:48:20;17.95;;;5.30;;
9306;SDS011;4691;47.612;7.610;2023-09-18T04:50:48;7.68;;;3.08;;
9306;SDS011;4691;47.612;7.610;2023-09-18T04:53:13;15.80;;;4.20;;
9306;SDS011;4691;47.612;7.610;2023-09-18T04:55:39;9.50;;;3.70;;
9306;SDS011;4691;47.612;7.610;2023-09-18T04:58:04;12.82;;;5.15;;
9306;SDS011;4691;47.612;7.610;2023-09-18T05:00:32;14.13;;;5.25;;
9306;SDS011;4691;47.612;7.610;2023-09-18T05:02:58;12.93;;;4.35;;
9306;SDS011;4691;47.612;7.610;2023-09-18T05:05:26;12.48;;;4.35;;
9306;SDS011;4691;47.612;7.610;2023-09-18T05:07:51;12.90;;;4.65;;
9306;SDS011;4691;47.612;7.610;2023-09-18T05:10:19;15.30;;;4.55;;
9306;SDS011;4691;47.612;7.610;2023-09-18T05:12:44;15.60;;;3.80;;
9306;SDS011;4691;47.612;7.610;2023-09-18T05:15:10;7.63;;;3.30;;
9306;SDS011;4691;47.612;7.610;2023-09-18T05:17:45;11.52;;;4.45;;
9306;SDS011;4691;47.612;7.610;2023-09-18T05:20:13;12.98;;;3.80;;
9306;SDS011;4691;47.612;7.610;2023-09-18T05:22:42;14.57;;;3.78;;
9306;SDS011;4691;47.612;7.610;2023-09-18T05:25:10;10.17;;;3.47;;
9306;SDS011;4691;47.612;7.610;2023-09-18T05:27:36;11.90;;;3.60;;
9306;SDS011;4691;47.612;7.610;2023-09-18T05:30:09;8.27;;;4.25;;
9306;SDS011;4691;47.612;7.610;2023-09-18T05:32:40;12.88;;;3.50;;
9306;SDS011;4691;47.612;7.610;2023-09-18T05:35:06;17.80;;;4.05;;
9306;SDS011;4691;47.612;7.610;2023-09-18T05:37:35;11.27;;;3.00;;
9306;SDS011;4691;47.612;7.610;2023-09-18T05:40:00;14.13;;;4.20;;
9306;SDS011;4691;47.612;7.610;2023-09-18T05:42:25;10.20;;;3.20;;
9306;SDS011;4691;47.612;7.610;2023-09-18T05:44:51;13.77;;;3.75;;
9306;SDS011;4691;47.612;7.610;2023-09-18T05:47:16;10.38;;;3.72;;
9306;SDS011;4691;47.612;7.610;2023-09-18T05:49:41;14.82;;;4.13;;
9306;SDS011;4691;47.612;7.610;2023-09-18T05:52:07;16.25;;;4.57;;
9306;SDS011;4691;47.612;7.610;2023-09-18T05:54:32;14.02;;;3.72;;
9306;SDS011;4691;47.612;7.610;2023-09-18T05:56:57;11.18;;;3.58;;
9306;SDS011;4691;47.612;7.610;2023-09-18T05:59:22;12.30;;;3.65;;
9306;SDS011;4691;47.612;7.610;2023-09-18T06:01:48;10.60;;;3.53;;
9306;SDS011;4691;47.612;7.610;2023-09-18T06:04:14;13.18;;;4.35;;
9306;SDS011;4691;47.612;7.610;2023-09-18T06:06:39;11.35;;;3.53;;
9306;SDS011;4691;47.612;7.610;2023-09-18T06:09:05;11.45;;;3.58;;
9306;SDS011;4691;47.612;7.610;2023-09-18T06:11:30;9.57;;;3.50;;
9306;SDS011;4691;47.612;7.610;2023-09-18T06:13:56;9.60;;;3.42;;
9306;SDS011;4691;47.612;7.610;2023-09-18T06:16:21;13.50;;;3.47;;
9306;SDS011;4691;47.612;7.610;2023-09-18T06:18:49;9.95;;;3.08;;
9306;SDS011;4691;47.612;7.610;2023-09-18T06:21:15;8.38;;;3.10;;
9306;SDS011;4691;47.612;7.610;2023-09-18T06:23:40;7.72;;;2.60;;
9306;SDS011;4691;47.612;7.610;2023-09-18T06:26:05;14.63;;;3.78;;
9306;SDS011;4691;47.612;7.610;2023-09-18T06:28:30;9.43;;;3.08;;
9306;SDS011;4691;47.612;7.610;2023-09-18T06:30:56;8.27;;;3.30;;
9306;SDS011;4691;47.612;7.610;2023-09-18T06:33:21;6.93;;;3.15;;
9306;SDS011;4691;47.612;7.610;2023-09-18T06:35:47;9.25;;;3.70;;
9306;SDS011;4691;47.612;7.610;2023-09-18T06:38:13;10.60;;;2.88;;
9306;SDS011;4691;47.612;7.610;2023-09-18T06:40:40;7.28;;;2.85;;
9306;SDS011;4691;47.612;7.610;2023-09-18T06:43:05;11.02;;;3.20;;
9306;SDS011;4691;47.612;7.610;2023-09-18T06:45:31;11.02;;;3.53;;
9306;SDS011;4691;47.612;7.610;2023-09-18T06:47:58;12.98;;;2.92;;
9306;SDS011;4691;47.612;7.610;2023-09-18T06:50:23;12.68;;;6.15;;
9306;SDS011;4691;47.612;7.610;2023-09-18T06:52:49;9.65;;;3.92;;
9306;SDS011;4691;47.612;7.610;2023-09-18T06:55:14;9.48;;;2.80;;
9306;SDS011;4691;47.612;7.610;2023-09-18T06:57:41;10.52;;;2.90;;
9306;SDS011;4691;47.612;7.610;2023-09-18T07:00:07;7.85;;;3.20;;
9306;SDS011;4691;47.612;7.610;2023-09-18T07:02:33;8.20;;;2.92;;
9306;SDS011;4691;47.612;7.610;2023-09-18T07:04:58;6.80;;;3.00;;
9306;SDS011;4691;47.612;7.610;2023-09-18T07:07:23;9.27;;;2.75;;
9306;SDS011;4691;47.612;7.610;2023-09-18T07:09:50;10.38;;;3.15;;
9306;SDS011;4691;47.612;7.610;2023-09-18T07:12:16;9.32;;;3.03;;
9306;SDS011;4691;47.612;7.610;2023-09-18T07:14:44;7.95;;;2.80;;
9306;SDS011;4691;47.612;7.610;2023-09-18T07:17:10;6.85;;;2.75;;
9306;SDS011;4691;47.612;7.610;2023-09-18T07:19:35;10.45;;;3.08;;
9306;SDS011;4691;47.612;7.610;2023-09-18T07:22:01;7.95;;;2.72;;
9306;SDS011;4691;47.612;7.610;2023-09-18T07:24:27;11.55;;;3.13;;
9306;SDS011;4691;47.612;7.610;2023-09-18T07:26:52;10.68;;;3.38;;
9306;SDS011;4691;47.612;7.610;2023-09-18T07:29:17;11.77;;;3.17;;
9306;SDS011;4691;47.612;7.610;2023-09-18T07:31:43;7.15;;;2.60;;
9306;SDS011;4691;47.612;7.610;2023-09-18T07:34:08;5.93;;;2.55;;
9306;SDS011;4691;47.612;7.610;2023-09-18T07:36:34;7.68;;;2.85;;
9306;SDS011;4691;47.612;7.610;2023-09-18T07:39:00;8.30;;;2.85;;
9306;SDS011;4691;47.612;7.610;2023-09-18T07:41:25;8.43;;;2.88;;
9306;SDS011;4691;47.612;7.610;2023-09-18T07:43:51;10.77;;;2.92;;
9306;SDS011;4691;47.612;7.610;2023-09-18T07:46:16;8.25;;;2.92;;
9306;SDS011;4691;47.612;7.610;2023-09-18T07:48:41;8.45;;;3.55;;
9306;SDS011;4691;47.612;7.610;2023-09-18T07:51:10;8.43;;;2.97;;
9306;SDS011;4691;47.612;7.610;2023-09-18T07:53:36;8.25;;;2.78;;
9306;SDS011;4691;47.612;7.610;2023-09-18T07:56:02;6.50;;;2.70;;
9306;SDS011;4691;47.612;7.610;2023-09-18T07:58:29;6.97;;;2.28;;
9306;SDS011;4691;47.612;7.610;2023-09-18T08:00:55;7.20;;;2.90;;
9306;SDS011;4691;47.612;7.610;2023-09-18T08:03:22;7.35;;;2.60;;
9306;SDS011;4691;47.612;7.610;2023-09-18T08:05:49;9.75;;;3.25;;
9306;SDS011;4691;47.612;7.610;2023-09-18T08:08:19;7.40;;;2.97;;
9306;SDS011;4691;47.612;7.610;2023-09-18T08:10:49;9.13;;;2.65;;
9306;SDS011;4691;47.612;7.610;2023-09-18T08:13:14;12.55;;;2.42;;
9306;SDS011;4691;47.612;7.610;2023-09-18T08:15:41;6.97;;;2.42;;
9306;SDS011;4691;47.612;7.610;2023-09-18T08:18:10;14.45;;;2.80;;
9306;SDS011;4691;47.612;7.610;2023-09-18T08:20:44;7.47;;;2.55;;
9306;SDS011;4691;47.612;7.610;2023-09-18T08:23:10;8.25;;;2.75;;
9306;SDS011;4691;47.612;7.610;2023-09-18T08:25:36;8.90;;;2.72;;
9306;SDS011;4691;47.612;7.610;2023-09-18T08:28:02;11.48;;;3.45;;
9306;SDS011;4691;47.612;7.610;2023-09-18T08:30:28;5.88;;;2.63;;
9306;SDS011;4691;47.612;7.610;2023-09-18T08:32:56;7.50;;;2.78;;
9306;SDS011;4691;47.612;7.610;2023-09-18T08:35:22;8.07;;;2.20;;
9306;SDS011;4691;47.612;7.610;2023-09-18T08:37:47;6.85;;;1.85;;
9306;SDS011;4691;47.612;7.610;2023-09-18T08:40:13;6.32;;;1.65;;
9306;SDS011;4691;47.612;7.610;2023-09-18T08:42:44;5.22;;;2.08;;
9306;SDS011;4691;47.612;7.610;2023-09-18T08:45:13;7.13;;;1.98;;
9306;SDS011;4691;47.612;7.610;2023-09-18T08:47:42;6.88;;;2.00;;
9306;SDS011;4691;47.612;7.610;2023-09-18T08:50:08;6.75;;;2.03;;
9306;SDS011;4691;47.612;7.610;2023-09-18T08:52:35;8.23;;;2.17;;
9306;SDS011;4691;47.612;7.610;2023-09-18T08:55:02;8.18;;;2.53;;
9306;SDS011;4691;47.612;7.610;2023-09-18T08:57:28;5.20;;;2.20;;
9306;SDS011;4691;47.612;7.610;2023-09-18T08:59:55;5.80;;;2.10;;
9306;SDS011;4691;47.612;7.610;2023-09-18T09:02:21;5.30;;;2.72;;
9306;SDS011;4691;47.612;7.610;2023-09-18T09:04:46;9.23;;;2.88;;
9306;SDS011;4691;47.612;7.610;2023-09-18T09:07:11;6.38;;;2.10;;
9306;SDS011;4691;47.612;7.610;2023-09-18T09:09:37;6.80;;;2.65;;
9306;SDS011;4691;47.612;7.610;2023-09-18T09:12:02;6.35;;;2.35;;
9306;SDS011;4691;47.612;7.610;2023-09-18T09:14:28;5.82;;;2.20;;
9306;SDS011;4691;47.612;7.610;2023-09-18T09:16:53;5.43;;;2.30;;
9306;SDS011;4691;47.612;7.610;2023-09-18T09:19:32;7.00;;;2.47;;
9306;SDS011;4691;47.612;7.610;2023-09-18T09:22:01;4.85;;;2.10;;
9306;SDS011;4691;47.612;7.610;2023-09-18T09:24:37;4.95;;;1.95;;
9306;SDS011;4691;47.612;7.610;2023-09-18T09:27:05;6.15;;;2.15;;
9306;SDS011;4691;47.612;7.610;2023-09-18T09:29:31;4.15;;;1.88;;
9306;SDS011;4691;47.612;7.610;2023-09-18T09:31:56;4.18;;;1.80;;
9306;SDS011;4691;47.612;7.610;2023-09-18T09:34:41;3.67;;;1.90;;
9306;SDS011;4691;47.612;7.610;2023-09-18T09:37:06;5.35;;;1.95;;
9306;SDS011;4691;47.612;7.610;2023-09-18T09:39:32;3.70;;;1.70;;
9306;SDS011;4691;47.612;7.610;2023-09-18T09:41:59;8.15;;;1.85;;
9306;SDS011;4691;47.612;7.610;2023-09-18T09:44:27;4.30;;;1.92;;
9306;SDS011;4691;47.612;7.610;2023-09-18T09:46:53;4.38;;;1.80;;
9306;SDS011;4691;47.612;7.610;2023-09-18T09:49:19;7.70;;;2.10;;
9306;SDS011;4691;47.612;7.610;2023-09-18T09:51:45;4.35;;;2.10;;
9306;SDS011;4691;47.612;7.610;2023-09-18T09:54:11;5.50;;;1.80;;
9306;SDS011;4691;47.612;7.610;2023-09-18T09:59:13;4.38;;;2.13;;
9306;SDS011;4691;47.612;7.610;2023-09-18T10:01:39;13.05;;;2.88;;
9306;SDS011;4691;47.612;7.610;2023-09-18T10:04:15;7.75;;;2.50;;
9306;SDS011;4691;47.612;7.610;2023-09-18T10:06:52;5.82;;;2.40;;
9306;SDS011;4691;47.612;7.610;2023-09-18T10:09:20;6.35;;;2.60;;
9306;SDS011;4691;47.612;7.610;2023-09-18T10:11:49;6.85;;;2.50;;
9306;SDS011;4691;47.612;7.610;2023-09-18T10:14:18;6.68;;;2.92;;
9306;SDS011;4691;47.612;7.610;2023-09-18T10:16:45;4.72;;;2.70;;
9306;SDS011;4691;47.612;7.610;2023-09-18T10:25:11;4.05;;;2.40;;
9306;SDS011;4691;47.612;7.610;2023-09-18T10:27:44;7.32;;;2.67;;
9306;SDS011;4691;47.612;7.610;2023-09-18T10:30:14;8.07;;;2.70;;
9306;SDS011;4691;47.612;7.610;2023-09-18T10:32:43;6.70;;;2.60;;
9306;SDS011;4691;47.612;7.610;2023-09-18T10:35:13;6.97;;;2.20;;
9306;SDS011;4691;47.612;7.610;2023-09-18T10:37:41;6.55;;;2.60;;
9306;SDS011;4691;47.612;7.610;2023-09-18T10:40:10;4.70;;;2.15;;
9306;SDS011;4691;47.612;7.610;2023-09-18T10:42:39;5.97;;;2.40;;
9306;SDS011;4691;47.612;7.610;2023-09-18T10:45:10;8.98;;;2.10;;
9306;SDS011;4691;47.612;7.610;2023-09-18T10:47:40;6.00;;;2.15;;
9306;SDS011;4691;47.612;7.610;2023-09-18T10:50:10;4.93;;;2.05;;
9306;SDS011;4691;47.612;7.610;2023-09-18T10:52:36;8.25;;;2.00;;
9306;SDS011;4691;47.612;7.610;2023-09-18T10:55:03;7.53;;;2.20;;
9306;SDS011;4691;47.612;7.610;2023-09-18T10:57:32;5.75;;;2.28;;
9306;SDS011;4691;47.612;7.610;2023-09-18T11:00:01;5.68;;;2.15;;
9306;SDS011;4691;47.612;7.610;2023-09-18T11:02:39;7.75;;;2.22;;
9306;SDS011;4691;47.612;7.610;2023-09-18T11:05:06;2.10;;;1.50;;
9306;SDS011;4691;47.612;7.610;2023-09-18T11:07:31;5.57;;;2.28;;
9306;SDS011;4691;47.612;7.610;2023-09-18T11:10:04;6.65;;;2.28;;
9306;SDS011;4691;47.612;7.610;2023-09-18T11:12:53;5.65;;;1.88;;
9306;SDS011;4691;47.612;7.610;2023-09-18T11:15:31;7.05;;;2.10;;
9306;SDS011;4691;47.612;7.610;2023-09-18T11:17:59;5.17;;;2.00;;
9306;SDS011;4691;47.612;7.610;2023-09-18T11:20:26;4.30;;;1.88;;
9306;SDS011;4691;47.612;7.610;2023-09-18T11:23:01;5.60;;;1.90;;
9306;SDS011;4691;47.612;7.610;2023-09-18T11:25:41;2.55;;;1.52;;
9306;SDS011;4691;47.612;7.610;2023-09-18T11:28:25;9.02;;;2.53;;
9306;SDS011;4691;47.612;7.610;2023-09-18T11:30:57;3.75;;;1.50;;
9306;SDS011;4691;47.612;7.610;2023-09-18T11:33:31;5.60;;;1.45;;
9306;SDS011;4691;47.612;7.610;2023-09-18T11:35:59;5.10;;;1.70;;
9306;SDS011;4691;47.612;7.610;2023-09-18T11:38:28;9.80;;;2.78;;
9306;SDS011;4691;47.612;7.610;2023-09-18T11:40:54;6.00;;;2.20;;
9306;SDS011;4691;47.612;7.610;2023-09-18T11:45:50;4.20;;;2.05;;
9306;SDS011;4691;47.612;7.610;2023-09-18T11:48:18;3.25;;;1.58;;
9306;SDS011;4691;47.612;7.610;2023-09-18T11:50:54;4.72;;;2.00;;
9306;SDS011;4691;47.612;7.610;2023-09-18T11:53:21;3.50;;;1.65;;
9306;SDS011;4691;47.612;7.610;2023-09-18T11:55:48;4.47;;;1.70;;
9306;SDS011;4691;47.612;7.610;2023-09-18T11:58:14;7.35;;;2.08;;
9306;SDS011;4691;47.612;7.610;2023-09-18T12:00:39;5.43;;;2.45;;
9306;SDS011;4691;47.612;7.610;2023-09-18T12:03:14;6.07;;;1.77;;
9306;SDS011;4691;47.612;7.610;2023-09-18T12:06:01;7.10;;;2.38;;
9306;SDS011;4691;47.612;7.610;2023-09-18T12:08:30;5.72;;;2.20;;
9306;SDS011;4691;47.612;7.610;2023-09-18T12:10:56;6.05;;;2.15;;
9306;SDS011;4691;47.612;7.610;2023-09-18T12:13:25;7.28;;;2.95;;
9306;SDS011;4691;47.612;7.610;2023-09-18T12:16:02;3.38;;;1.60;;
9306;SDS011;4691;47.612;7.610;2023-09-18T12:18:30;5.35;;;2.22;;
9306;SDS011;4691;47.612;7.610;2023-09-18T12:21:05;4.25;;;2.20;;
9306;SDS011;4691;47.612;7.610;2023-09-18T12:23:41;4.57;;;1.77;;
9306;SDS011;4691;47.612;7.610;2023-09-18T12:26:10;4.53;;;1.60;;
9306;SDS011;4691;47.612;7.610;2023-09-18T12:28:38;4.47;;;1.75;;
9306;SDS011;4691;47.612;7.610;2023-09-18T12:31:04;3.45;;;1.50;;
9306;SDS011;4691;47.612;7.610;2023-09-18T12:33:40;2.30;;;1.70;;
9306;SDS011;4691;47.612;7.610;2023-09-18T12:36:34;4.70;;;1.58;;
9306;SDS011;4691;47.612;7.610;2023-09-18T12:39:06;4.38;;;1.88;;
9306;SDS011;4691;47.612;7.610;2023-09-18T12:41:37;5.82;;;1.58;;
9306;SDS011;4691;47.612;7.610;2023-09-18T12:44:47;8.88;;;4.30;;
9306;SDS011;4691;47.612;7.610;2023-09-18T12:47:19;4.20;;;1.83;;
9306;SDS011;4691;47.612;7.610;2023-09-18T12:52:31;2.63;;;1.33;;
9306;SDS011;4691;47.612;7.610;2023-09-18T12:55:01;3.15;;;1.52;;
9306;SDS011;4691;47.612;7.610;2023-09-18T12:57:33;4.57;;;1.50;;
9306;SDS011;4691;47.612;7.610;2023-09-18T13:00:17;4.30;;;1.33;;
9306;SDS011;4691;47.612;7.610;2023-09-18T13:03:08;4.70;;;1.67;;
9306;SDS011;4691;47.612;7.610;2023-09-18T13:05:40;4.28;;;1.50;;
9306;SDS011;4691;47.612;7.610;2023-09-18T13:08:08;3.22;;;1.50;;
9306;SDS011;4691;47.612;7.610;2023-09-18T13:10:44;6.05;;;1.70;;
9306;SDS011;4691;47.612;7.610;2023-09-18T13:13:28;3.05;;;1.38;;
9306;SDS011;4691;47.612;7.610;2023-09-18T13:15:57;5.95;;;1.40;;
9306;SDS011;4691;47.612;7.610;2023-09-18T13:18:30;7.68;;;1.52;;
9306;SDS011;4691;47.612;7.610;2023-09-18T13:20:55;3.58;;;1.35;;
9306;SDS011;4691;47.612;7.610;2023-09-18T13:23:29;3.42;;;1.48;;
9306;SDS011;4691;47.612;7.610;2023-09-18T13:26:04;4.45;;;1.70;;
9306;SDS011;4691;47.612;7.610;2023-09-18T13:28:32;4.45;;;1.45;;
9306;SDS011;4691;47.612;7.610;2023-09-18T13:31:01;2.50;;;1.33;;
9306;SDS011;4691;47.612;7.610;2023-09-18T13:33:30;3.58;;;1.23;;
9306;SDS011;4691;47.612;7.610;2023-09-18T13:35:56;2.25;;;1.40;;
9306;SDS011;4691;47.612;7.610;2023-09-18T13:38:21;4.97;;;2.00;;
9306;SDS011;4691;47.612;7.610;2023-09-18T13:40:47;2.42;;;1.38;;
9306;SDS011;4691;47.612;7.610;2023-09-18T13:43:12;3.75;;;1.50;;
9306;SDS011;4691;47.612;7.610;2023-09-18T13:45:43;5.30;;;1.50;;
9306;SDS011;4691;47.612;7.610;2023-09-18T13:48:09;4.97;;;1.70;;
9306;SDS011;4691;47.612;7.610;2023-09-18T13:50:37;5.18;;;1.80;;
9306;SDS011;4691;47.612;7.610;2023-09-18T13:53:04;7.32;;;1.55;;
9306;SDS011;4691;47.612;7.610;2023-09-18T13:55:30;3.38;;;1.60;;
9306;SDS011;4691;47.612;7.610;2023-09-18T13:57:59;4.55;;;1.65;;
9306;SDS011;4691;47.612;7.610;2023-09-18T14:00:24;4.75;;;1.60;;
9306;SDS011;4691;47.612;7.610;2023-09-18T14:02:51;8.32;;;1.88;;
9306;SDS011;4691;47.612;7.610;2023-09-18T14:05:16;4.97;;;1.70;;
9306;SDS011;4691;47.612;7.610;2023-09-18T14:07:42;4.25;;;1.58;;
9306;SDS011;4691;47.612;7.610;2023-09-18T14:10:07;5.07;;;1.70;;
9306;SDS011;4691;47.612;7.610;2023-09-18T14:12:35;3.65;;;1.65;;
9306;SDS011;4691;47.612;7.610;2023-09-18T14:15:05;5.40;;;1.67;;
9306;SDS011;4691;47.612;7.610;2023-09-18T14:17:34;2.20;;;1.40;;
9306;SDS011;4691;47.612;7.610;2023-09-18T14:20:00;5.20;;;1.65;;
9306;SDS011;4691;47.612;7.610;2023-09-18T14:22:28;3.30;;;1.30;;
9306;SDS011;4691;47.612;7.610;2023-09-18T14:24:54;4.80;;;1.90;;
9306;SDS011;4691;47.612;7.610;2023-09-18T14:27:19;4.95;;;1.60;;
9306;SDS011;4691;47.612;7.610;2023-09-18T14:29:44;4.53;;;1.70;;
9306;SDS011;4691;47.612;7.610;2023-09-18T14:32:10;3.88;;;1.50;;
9306;SDS011;4691;47.612;7.610;2023-09-18T14:34:36;6.25;;;1.80;;
9306;SDS011;4691;47.612;7.610;2023-09-18T14:37:02;4.22;;;1.90;;
9306;SDS011;4691;47.612;7.610;2023-09-18T14:39:29;2.25;;;1.50;;
9306;SDS011;4691;47.612;7.610;2023-09-18T14:44:24;5.15;;;1.92;;
9306;SDS011;4691;47.612;7.610;2023-09-18T14:46:50;4.22;;;1.70;;
9306;SDS011;4691;47.612;7.610;2023-09-18T14:49:15;3.50;;;1.50;;
9306;SDS011;4691;47.612;7.610;2023-09-18T14:51:41;4.35;;;1.70;;
9306;SDS011;4691;47.612;7.610;2023-09-18T14:54:06;4.10;;;1.70;;
9306;SDS011;4691;47.612;7.610;2023-09-18T14:56:33;4.38;;;1.65;;
9306;SDS011;4691;47.612;7.610;2023-09-18T14:59:02;3.53;;;1.70;;
9306;SDS011;4691;47.612;7.610;2023-09-18T15:01:27;4.03;;;1.58;;
9306;SDS011;4691;47.612;7.610;2023-09-18T15:03:53;6.82;;;1.60;;
9306;SDS011;4691;47.612;7.610;2023-09-18T15:06:18;4.95;;;1.50;;
9306;SDS011;4691;47.612;7.610;2023-09-18T15:08:43;4.05;;;1.60;;
9306;SDS011;4691;47.612;7.610;2023-09-18T15:11:09;6.88;;;2.03;;
9306;SDS011;4691;47.612;7.610;2023-09-18T15:13:35;2.95;;;1.75;;
9306;SDS011;4691;47.612;7.610;2023-09-18T15:16:01;5.35;;;1.80;;
9306;SDS011;4691;47.612;7.610;2023-09-18T15:18:27;2.75;;;1.70;;
9306;SDS011;4691;47.612;7.610;2023-09-18T15:20:53;3.35;;;1.60;;
9306;SDS011;4691;47.612;7.610;2023-09-18T15:23:21;3.67;;;1.95;;
9306;SDS011;4691;47.612;7.610;2023-09-18T15:25:47;2.50;;;1.38;;
9306;SDS011;4691;47.612;7.610;2023-09-18T15:28:15;5.13;;;1.70;;
9306;SDS011;4691;47.612;7.610;2023-09-18T15:30:41;2.88;;;1.52;;
9306;SDS011;4691;47.612;7.610;2023-09-18T15:33:07;2.80;;;1.30;;